Time;durP1;ratioP1;P1;durP2;ratioP2;P2;SDS_P1;SDS_P2;PMS_P1;PMS_P2;Temp;Humidity;BMP_temperature;BMP_pressure;BME280_temperature;BME280_humidity;BME280_pressure;Samples;Min_cycle;Max_cycle;Signal;HPM_P1;HPM_P2
2022/01/02 00:00:25;;;;;;;5.45;3.25;;;11.50;99.90;;;;;;5134330;28;20080;-71
2022/01/02 00:02:57;;;;;;;5.20;3.03;;;11.60;99.90;;;;;;5134938;28;20130;-71
2022/01/02 00:05:23;;;;;;;5.33;3.23;;;11.70;99.90;;;;;;5135483;28;20053;-71
2022/01/02 00:07:55;;;;;;;8.65;4.03;;;11.60;99.90;;;;;;5116018;28;20783;-71
2022/01/02 00:10:21;;;;;;;6.70;3.65;;;11.60;99.90;;;;;;5134373;28;20051;-71
2022/01/02 00:12:52;;;;;;;4.90;3.08;;;11.70;99.90;;;;;;5116345;28;20426;-71
2022/01/02 00:15:22;;;;;;;8.50;3.47;;;11.60;99.90;;;;;;5116450;28;20103;-70
2022/01/02 00:17:56;;;;;;;5.15;3.03;;;11.90;99.90;;;;;;5116986;28;20051;-71
2022/01/02 00:20:43;;;;;;;6.93;2.97;;;11.60;99.90;;;;;;5134553;27;20509;-71
2022/01/02 00:23:09;;;;;;;5.15;3.20;;;11.50;99.90;;;;;;5119926;27;20046;-71
2022/01/02 00:25:39;;;;;;;5.53;3.30;;;11.60;99.90;;;;;;5138292;27;20091;-71
2022/01/02 00:28:10;;;;;;;6.97;3.50;;;11.80;99.90;;;;;;5137555;27;20043;-69
2022/01/02 00:30:37;;;;;;;5.57;3.35;;;11.60;99.90;;;;;;5120129;27;20047;-71
2022/01/02 00:33:03;;;;;;;7.13;3.33;;;11.50;99.90;;;;;;5138016;27;20047;-72
2022/01/02 00:35:29;;;;;;;5.40;3.10;;;11.60;99.90;;;;;;5138587;27;20043;-72
2022/01/02 00:37:55;;;;;;;7.28;3.80;;;11.50;99.90;;;;;;5138018;27;20050;-73
2022/01/02 00:40:21;;;;;;;7.45;3.40;;;11.50;99.90;;;;;;5138239;27;20043;-70
2022/01/02 00:42:55;;;;;;;6.22;3.22;;;11.50;99.90;;;;;;5137994;27;20043;-72
2022/01/02 00:45:26;;;;;;;5.93;3.30;;;11.70;99.90;;;;;;5119534;27;20054;-72
2022/01/02 00:48:13;;;;;;;7.28;3.55;;;11.50;99.90;;;;;;5119476;27;20563;-73
2022/01/02 00:50:46;;;;;;;6.50;3.78;;;11.50;99.90;;;;;;5119865;27;20047;-71
2022/01/02 00:53:15;;;;;;;5.60;3.50;;;11.40;99.90;;;;;;5137847;27;20429;-72
2022/01/02 00:55:43;;;;;;;6.90;3.80;;;11.70;99.90;;;;;;5119169;27;20152;-72
2022/01/02 00:58:16;;;;;;;8.65;4.03;;;11.40;99.90;;;;;;5136969;27;20062;-71
2022/01/02 01:00:48;;;;;;;9.02;3.95;;;11.50;99.90;;;;;;5120266;27;20390;-70
2022/01/02 01:03:21;;;;;;;6.63;3.63;;;11.40;99.90;;;;;;5137621;27;20116;-73
2022/01/02 01:05:47;;;;;;;8.27;4.00;;;11.70;99.90;;;;;;5137542;27;20047;-71
2022/01/02 01:08:13;;;;;;;6.82;3.67;;;11.40;99.90;;;;;;5102289;27;20051;-70
2022/01/02 01:10:41;;;;;;;9.32;4.00;;;11.40;99.90;;;;;;5119062;27;20042;-71
2022/01/02 01:13:09;;;;;;;9.40;4.00;;;11.40;99.90;;;;;;5137352;27;20125;-71
2022/01/02 01:15:37;;;;;;;6.72;3.88;;;11.40;99.90;;;;;;5137480;27;20062;-71
2022/01/02 01:18:03;;;;;;;6.95;3.47;;;11.70;99.90;;;;;;5137276;27;20433;-71
2022/01/02 01:20:31;;;;;;;7.25;3.72;;;11.50;99.90;;;;;;5137156;27;20047;-70
2022/01/02 01:22:57;;;;;;;5.72;3.88;;;11.40;99.90;;;;;;5137447;27;20073;-71
2022/01/02 01:25:24;;;;;;;9.70;4.38;;;11.40;99.90;;;;;;5118929;27;20043;-70
2022/01/02 01:27:52;;;;;;;8.48;4.25;;;11.40;99.90;;;;;;5136757;27;20042;-70
2022/01/02 01:30:20;;;;;;;9.00;4.28;;;11.50;99.90;;;;;;5136332;27;20383;-70
2022/01/02 01:32:46;;;;;;;8.00;4.43;;;11.40;99.90;;;;;;5136715;27;20072;-71
2022/01/02 01:35:13;;;;;;;8.63;4.60;;;11.50;99.90;;;;;;5118583;27;20126;-72
2022/01/02 01:37:39;;;;;;;7.78;4.18;;;11.40;99.90;;;;;;5118732;27;20050;-71
2022/01/02 01:40:08;;;;;;;10.73;4.15;;;11.40;99.90;;;;;;5119088;27;20138;-71
2022/01/02 01:45:28;;;;;;;7.15;4.15;;;11.50;99.90;;;;;;5136742;27;20059;-71
2022/01/02 01:47:51;;;;;;;9.73;3.97;;;11.40;99.90;;;;;;5136904;27;20051;-72
2022/01/02 01:50:18;;;;;;;7.25;3.95;;;11.70;99.90;;;;;;5136545;27;20054;-71
2022/01/02 01:52:44;;;;;;;9.82;4.35;;;11.40;99.90;;;;;;5136570;27;20093;-71
2022/01/02 01:55:10;;;;;;;8.48;3.78;;;11.50;99.90;;;;;;5136191;27;20055;-72
2022/01/02 01:57:39;;;;;;;8.35;3.72;;;11.40;99.90;;;;;;5136142;27;20119;-72
2022/01/02 02:00:08;;;;;;;9.80;4.72;;;11.50;99.90;;;;;;5135863;27;20118;-71
2022/01/02 02:02:33;;;;;;;9.98;4.30;;;11.50;99.90;;;;;;5118243;27;20051;-71
2022/01/02 02:04:59;;;;;;;8.07;4.28;;;11.50;99.90;;;;;;5136296;27;20130;-72
2022/01/02 02:07:29;;;;;;;7.40;4.43;;;11.50;99.90;;;;;;5136255;27;20483;-71
2022/01/02 02:10:22;;;;;;;6.57;3.92;;;11.40;99.90;;;;;;5136172;27;20043;-70
2022/01/02 02:12:49;;;;;;;;;;;11.50;99.90;;;;;;5136578;27;20051;-71
2022/01/02 02:15:16;;;;;;;10.10;4.63;;;11.40;99.90;;;;;;5136168;27;19920;-70
2022/01/02 02:17:47;;;;;;;10.63;4.65;;;11.70;99.90;;;;;;5136233;27;20506;-71
2022/01/02 02:20:22;;;;;;;6.18;4.38;;;11.40;99.90;;;;;;5135732;27;20043;-71
2022/01/02 02:22:52;;;;;;;9.50;4.75;;;11.50;99.90;;;;;;5117883;27;20046;-70
2022/01/02 02:25:20;;;;;;;9.95;4.70;;;11.40;99.90;;;;;;5136767;27;20047;-71
2022/01/02 02:27:50;;;;;;;8.98;4.90;;;11.40;99.90;;;;;;5117554;27;20051;-70
2022/01/02 02:30:16;;;;;;;13.25;6.03;;;11.50;99.90;;;;;;5100285;27;20083;-71
2022/01/02 02:32:42;;;;;;;10.73;5.22;;;11.60;99.90;;;;;;5117443;27;20050;-71
2022/01/02 02:35:08;;;;;;;9.30;5.13;;;11.70;99.90;;;;;;5083988;27;20043;-71
2022/01/02 02:37:33;;;;;;;9.23;4.75;;;11.40;99.90;;;;;;5100713;27;20043;-71
2022/01/02 02:40:01;;;;;;;11.60;5.13;;;11.50;99.90;;;;;;5100401;27;20050;-71
2022/01/02 02:42:37;;;;;;;9.80;5.05;;;11.40;99.90;;;;;;5117333;27;20045;-71
2022/01/02 02:51:07;;;;;;;11.40;5.43;;;11.50;99.90;;;;;;5117048;27;20491;-70
2022/01/02 02:53:36;;;;;;;10.75;5.35;;;11.40;99.90;;;;;;5117125;27;20059;-71
2022/01/02 02:56:02;;;;;;;11.75;6.03;;;11.40;99.90;;;;;;5099876;27;20051;-70
2022/01/02 03:00:59;;;;;;;10.10;5.43;;;11.40;99.90;;;;;;5116567;27;20059;-70
2022/01/02 03:03:24;;;;;;;11.82;5.72;;;11.70;99.90;;;;;;5100352;27;20062;-71
2022/01/02 03:05:51;;;;;;;10.68;5.25;;;11.40;99.90;;;;;;5100008;27;20043;-71
2022/01/02 03:08:16;;;;;;;8.55;5.30;;;11.40;99.90;;;;;;5135044;27;20043;-71
2022/01/02 03:10:42;;;;;;;9.23;5.10;;;11.60;99.90;;;;;;5135088;27;20397;-71
2022/01/02 03:13:08;;;;;;;11.88;6.00;;;11.30;99.90;;;;;;5116929;27;20039;-70
2022/01/02 03:15:34;;;;;;;11.00;5.25;;;11.70;99.90;;;;;;5099710;27;20129;-71
2022/01/02 03:18:00;;;;;;;12.88;6.03;;;11.30;99.90;;;;;;5117758;27;20081;-71
2022/01/02 03:20:25;;;;;;;9.55;5.50;;;11.40;99.90;;;;;;5134897;27;20364;-71
2022/01/02 03:22:51;;;;;;;8.95;4.63;;;11.40;99.90;;;;;;5117032;27;20047;-70
2022/01/02 03:25:17;;;;;;;11.60;5.18;;;11.40;99.90;;;;;;5116616;27;20046;-70
2022/01/02 03:27:44;;;;;;;11.75;5.40;;;11.30;99.90;;;;;;5134911;27;20055;-70
2022/01/02 03:30:11;;;;;;;10.38;5.43;;;11.30;99.90;;;;;;5134662;27;20118;-71
2022/01/02 03:32:37;;;;;;;10.32;5.13;;;11.20;99.90;;;;;;5100576;27;20086;-71
2022/01/02 03:35:04;;;;;;;12.52;5.30;;;11.30;99.90;;;;;;5134788;27;20046;-71
2022/01/02 03:37:33;;;;;;;11.93;6.00;;;11.20;99.90;;;;;;5134719;27;20046;-71
2022/01/02 03:40:00;;;;;;;13.02;5.88;;;11.20;99.90;;;;;;5084106;27;20035;-72
2022/01/02 03:42:26;;;;;;;9.68;5.43;;;11.20;99.90;;;;;;5116024;28;20554;-72
2022/01/02 03:44:51;;;;;;;11.10;6.03;;;11.20;99.90;;;;;;5135505;28;20039;-72
2022/01/02 03:47:18;;;;;;;9.90;5.25;;;11.30;99.90;;;;;;5134618;28;20463;-72
2022/01/02 03:49:43;;;;;;;11.85;6.78;;;11.30;99.90;;;;;;5116304;28;20043;-72
2022/01/02 03:52:09;;;;;;;10.82;6.40;;;11.20;99.90;;;;;;5135401;28;20050;-72
2022/01/02 03:54:35;;;;;;;11.60;6.00;;;11.20;99.90;;;;;;5099087;27;20043;-72
2022/01/02 03:57:01;;;;;;;11.30;6.30;;;11.20;99.90;;;;;;5119604;27;20055;-72
2022/01/02 03:59:27;;;;;;;12.00;6.43;;;11.20;99.90;;;;;;5138726;27;20116;-71
2022/01/02 04:01:53;;;;;;;13.95;6.70;;;11.30;99.90;;;;;;5120449;27;20125;-72
2022/01/02 04:04:19;;;;;;;12.75;6.22;;;11.20;99.90;;;;;;5120838;27;20138;-72
2022/01/02 04:06:44;;;;;;;10.98;6.63;;;11.20;99.90;;;;;;5120819;27;20129;-72
2022/01/02 04:09:10;;;;;;;12.50;7.65;;;11.30;99.90;;;;;;5102904;27;20141;-72
2022/01/02 04:11:36;;;;;;;12.15;6.85;;;11.60;99.90;;;;;;5120254;27;20436;-72
2022/01/02 04:14:02;;;;;;;11.40;6.25;;;11.20;99.90;;;;;;5103347;27;20039;-72
2022/01/02 04:16:27;;;;;;;11.32;6.68;;;11.40;99.90;;;;;;5121183;27;20043;-73
2022/01/02 04:18:53;;;;;;;9.85;5.60;;;11.20;99.90;;;;;;5121102;27;20439;-72
2022/01/02 04:21:19;;;;;;;13.25;6.65;;;11.30;99.90;;;;;;5103043;27;20039;-72
2022/01/02 04:23:45;;;;;;;12.32;6.30;;;11.20;99.90;;;;;;5120049;27;20043;-71
2022/01/02 04:26:10;;;;;;;11.07;5.80;;;11.30;99.90;;;;;;5103976;27;20054;-72
2022/01/02 04:28:36;;;;;;;14.77;6.05;;;11.30;99.90;;;;;;5138059;27;20471;-72
2022/01/02 04:31:02;;;;;;;11.70;6.30;;;11.20;99.90;;;;;;5138769;27;20054;-72
2022/01/02 04:33:28;;;;;;;18.02;5.80;;;11.20;99.90;;;;;;5120245;27;20035;-72
2022/01/02 04:35:53;;;;;;;9.65;6.20;;;11.30;99.90;;;;;;5137785;27;20120;-72
2022/01/02 04:38:19;;;;;;;11.35;5.70;;;11.20;99.90;;;;;;5103370;27;20039;-72
2022/01/02 04:40:47;;;;;;;16.42;5.88;;;11.20;99.90;;;;;;5102914;27;20039;-73
2022/01/02 04:43:13;;;;;;;10.75;5.38;;;11.50;99.90;;;;;;5138493;27;20043;-72
2022/01/02 04:45:39;;;;;;;15.65;6.32;;;11.30;99.90;;;;;;5085679;27;20043;-72
2022/01/02 04:48:05;;;;;;;15.05;5.85;;;11.30;99.90;;;;;;5102510;27;20045;-72
2022/01/02 04:50:30;;;;;;;16.95;6.13;;;11.40;99.90;;;;;;5102703;27;20055;-72
2022/01/02 04:52:56;;;;;;;12.30;5.75;;;11.30;99.90;;;;;;5137743;27;20368;-72
2022/01/02 04:55:22;;;;;;;12.60;5.85;;;11.40;99.90;;;;;;5119078;27;20054;-73
2022/01/02 04:57:48;;;;;;;15.20;6.57;;;11.30;99.90;;;;;;5102356;27;20104;-72
2022/01/02 05:00:14;;;;;;;15.65;6.45;;;11.40;99.90;;;;;;5086363;27;20051;-73
2022/01/02 05:02:39;;;;;;;16.92;7.00;;;11.40;99.90;;;;;;5119392;27;20047;-73
2022/01/02 05:05:06;;;;;;;13.57;5.40;;;11.40;99.90;;;;;;5085642;27;20376;-73
2022/01/02 05:07:31;;;;;;;10.55;5.75;;;11.30;99.90;;;;;;5101649;27;20039;-73
2022/01/02 05:09:57;;;;;;;11.77;5.13;;;11.30;99.90;;;;;;5119108;27;20498;-73
2022/01/02 05:12:23;;;;;;;12.25;5.40;;;11.40;99.90;;;;;;5119907;27;20164;-73
2022/01/02 05:14:48;;;;;;;9.65;4.78;;;11.30;99.90;;;;;;5137914;27;20047;-73
2022/01/02 05:17:14;;;;;;;10.65;5.40;;;11.40;99.90;;;;;;5101881;27;20043;-73
2022/01/02 05:19:40;;;;;;;13.00;6.15;;;11.40;99.90;;;;;;5137848;27;20043;-73
2022/01/02 05:22:06;;;;;;;13.77;5.55;;;11.40;99.90;;;;;;5118709;27;20117;-73
2022/01/02 05:24:32;;;;;;;10.25;5.05;;;11.30;99.90;;;;;;5119040;27;20082;-73
2022/01/02 05:26:58;;;;;;;11.82;4.50;;;11.30;99.90;;;;;;5102817;27;20396;-73
2022/01/02 05:29:24;;;;;;;9.25;4.35;;;11.40;99.90;;;;;;5102402;27;20078;-74
2022/01/02 05:31:50;;;;;;;10.93;5.07;;;11.30;99.90;;;;;;5119489;27;20039;-74
2022/01/02 05:34:16;;;;;;;15.13;5.30;;;11.60;99.90;;;;;;5118647;27;20043;-73
2022/01/02 05:36:48;;;;;;;11.27;4.55;;;11.50;99.90;;;;;;5118809;27;20043;-73
2022/01/02 05:39:16;;;;;;;12.43;4.88;;;11.40;99.90;;;;;;5119100;27;20058;-74
2022/01/02 05:41:42;;;;;;;13.70;4.60;;;11.40;99.90;;;;;;5136361;27;20564;-74
2022/01/02 05:44:08;;;;;;;15.07;4.63;;;11.50;99.90;;;;;;5101801;27;20043;-74
2022/01/02 05:46:34;;;;;;;13.27;4.55;;;11.50;99.90;;;;;;5084487;27;20043;-73
2022/01/02 05:49:00;;;;;;;11.52;4.35;;;11.50;99.90;;;;;;5136484;27;20039;-73
2022/01/02 05:51:25;;;;;;;12.32;4.57;;;11.50;99.90;;;;;;5101230;27;20097;-74
2022/01/02 05:53:51;;;;;;;13.43;4.18;;;11.40;99.90;;;;;;5136397;27;20405;-74
2022/01/02 05:56:17;;;;;;;10.70;4.10;;;11.60;99.90;;;;;;5136054;27;20064;-74
2022/01/02 05:58:42;;;;;;;12.35;3.80;;;11.50;99.90;;;;;;5100938;27;20077;-74
2022/01/02 06:01:08;;;;;;;8.00;3.50;;;11.70;99.90;;;;;;5118936;27;20130;-74
2022/01/02 06:03:34;;;;;;;9.75;3.80;;;11.50;99.90;;;;;;5101038;27;20058;-74
2022/01/02 06:06:00;;;;;;;9.18;3.42;;;11.50;99.90;;;;;;5117981;27;20046;-74
2022/01/02 06:08:25;;;;;;;13.63;3.65;;;11.50;99.90;;;;;;5084971;27;20093;-74
2022/01/02 06:10:51;;;;;;;9.35;3.20;;;11.60;99.90;;;;;;5118548;27;20096;-74
2022/01/02 06:13:17;;;;;;;11.77;3.92;;;11.50;99.90;;;;;;5136487;27;20475;-74
2022/01/02 06:15:43;;;;;;;7.75;3.22;;;11.80;99.90;;;;;;5136470;27;20042;-73
2022/01/02 06:18:08;;;;;;;9.75;3.38;;;11.60;99.90;;;;;;5135397;27;20043;-73
2022/01/02 06:20:34;;;;;;;8.00;2.92;;;11.40;99.90;;;;;;5117300;27;20043;-73
2022/01/02 06:23:00;;;;;;;10.70;3.78;;;11.60;99.90;;;;;;5135913;27;20634;-73
2022/01/02 06:25:26;;;;;;;9.45;3.75;;;12.00;99.90;;;;;;5117648;27;20383;-73
2022/01/02 06:27:51;;;;;;;8.55;3.33;;;11.60;99.90;;;;;;5083729;27;20046;-73
2022/01/02 06:30:18;;;;;;;7.65;2.58;;;11.50;99.90;;;;;;5117953;27;20471;-73
2022/01/02 06:32:44;;;;;;;9.48;3.35;;;11.50;99.90;;;;;;5135883;27;20398;-73
2022/01/02 06:35:10;;;;;;;12.55;3.67;;;11.60;99.90;;;;;;5100786;27;20069;-73
2022/01/02 06:37:36;;;;;;;7.97;3.65;;;11.80;99.90;;;;;;5117417;27;20050;-73
2022/01/02 06:40:03;;;;;;;10.60;3.50;;;11.60;99.90;;;;;;5117622;27;20043;-73
2022/01/02 06:42:28;;;;;;;11.65;3.40;;;11.70;99.90;;;;;;5066880;27;20069;-73
2022/01/02 06:44:54;;;;;;;10.35;3.08;;;11.70;99.90;;;;;;5135444;27;20546;-73
2022/01/02 06:47:20;;;;;;;7.90;3.15;;;11.60;99.90;;;;;;5135637;27;20484;-73
2022/01/02 06:49:45;;;;;;;10.93;3.60;;;11.50;99.90;;;;;;5099978;27;20049;-72
2022/01/02 06:52:11;;;;;;;9.52;3.25;;;11.70;99.90;;;;;;5100039;27;20474;-72
2022/01/02 06:54:37;;;;;;;9.52;3.58;;;11.50;99.90;;;;;;5116466;27;20511;-73
2022/01/02 06:57:03;;;;;;;13.05;3.50;;;11.60;99.90;;;;;;5135465;27;20190;-73
2022/01/02 06:59:31;;;;;;;11.93;3.78;;;11.60;99.90;;;;;;5116400;27;20043;-73
2022/01/02 07:01:56;;;;;;;10.77;3.30;;;11.60;99.90;;;;;;5101129;27;20514;-74
2022/01/02 07:04:22;;;;;;;10.25;3.30;;;11.60;99.90;;;;;;5083198;27;20071;-73
2022/01/02 07:06:48;;;;;;;9.07;2.80;;;11.70;99.90;;;;;;5099743;27;20051;-73
2022/01/02 07:09:14;;;;;;;6.43;2.97;;;11.70;99.90;;;;;;5117073;27;20043;-73
2022/01/02 07:11:39;;;;;;;6.97;3.03;;;11.70;99.90;;;;;;5116405;27;20398;-73
2022/01/02 07:14:05;;;;;;;8.80;3.03;;;11.60;99.90;;;;;;5116568;27;20039;-74
2022/01/02 07:16:31;;;;;;;6.90;2.15;;;11.60;99.90;;;;;;5134826;27;20050;-74
2022/01/02 07:18:57;;;;;;;10.40;2.40;;;11.60;99.90;;;;;;5134790;27;20054;-73
2022/01/02 07:21:23;;;;;;;5.60;2.40;;;11.70;99.90;;;;;;5099527;27;20039;-73
2022/01/02 07:23:48;;;;;;;7.07;2.03;;;11.60;99.90;;;;;;5116685;27;20050;-73
2022/01/02 07:26:15;;;;;;;8.50;2.67;;;11.70;99.90;;;;;;5116505;28;20391;-75
2022/01/02 07:28:40;;;;;;;6.28;1.83;;;11.90;99.90;;;;;;5100232;28;20126;-74
2022/01/02 07:31:06;;;;;;;7.35;2.03;;;11.60;99.90;;;;;;5116178;27;20126;-73
2022/01/02 07:33:32;;;;;;;4.93;1.80;;;11.70;99.90;;;;;;5116359;27;20390;-73
2022/01/02 07:35:57;;;;;;;4.60;2.00;;;11.80;99.90;;;;;;5100410;27;20122;-73
2022/01/02 07:38:23;;;;;;;4.80;1.60;;;11.80;99.90;;;;;;5099342;27;20501;-73
2022/01/02 07:40:49;;;;;;;5.28;1.92;;;11.90;99.90;;;;;;5134851;27;20043;-73
2022/01/02 07:43:15;;;;;;;5.75;2.17;;;11.70;99.90;;;;;;5134800;27;20471;-73
2022/01/02 07:45:41;;;;;;;5.30;1.88;;;12.00;99.90;;;;;;5116133;28;20086;-73
2022/01/02 07:48:07;;;;;;;6.25;2.42;;;11.70;99.90;;;;;;5116283;28;20043;-73
2022/01/02 07:50:32;;;;;;;5.88;1.58;;;11.80;99.90;;;;;;5098998;28;20395;-74
2022/01/02 07:52:58;;;;;;;5.53;2.08;;;11.70;99.90;;;;;;5116267;28;20046;-74
2022/01/02 07:55:24;;;;;;;4.90;2.42;;;11.80;99.90;;;;;;5116991;28;20104;-73
2022/01/02 07:57:50;;;;;;;6.53;2.47;;;11.80;99.90;;;;;;5116834;28;20061;-74
2022/01/02 08:00:17;;;;;;;9.27;2.60;;;11.70;99.90;;;;;;5115983;28;20047;-74
2022/01/02 08:02:42;;;;;;;5.97;2.28;;;11.80;99.90;;;;;;5099200;28;20047;-74
2022/01/02 08:05:10;;;;;;;7.13;2.15;;;11.80;99.90;;;;;;5115872;28;20039;-74
2022/01/02 08:07:41;;;;;;;5.15;2.40;;;11.70;99.90;;;;;;5115663;28;20054;-73
2022/01/02 08:10:07;;;;;;;8.45;2.38;;;11.70;99.90;;;;;;5115971;28;20050;-74
2022/01/02 08:12:33;;;;;;;6.28;2.70;;;11.80;99.90;;;;;;5134807;28;20467;-73
2022/01/02 08:14:59;;;;;;;9.05;2.15;;;11.80;99.90;;;;;;5115610;28;20054;-73
2022/01/02 08:17:27;;;;;;;5.45;2.50;;;11.70;99.90;;;;;;5116104;28;20073;-73
2022/01/02 08:19:53;;;;;;;6.45;2.20;;;11.70;99.90;;;;;;5099760;28;20090;-73
2022/01/02 08:22:20;;;;;;;7.15;2.38;;;11.60;99.90;;;;;;5116350;28;20151;-73
2022/01/02 08:24:45;;;;;;;6.47;2.50;;;11.70;99.90;;;;;;5115827;28;20084;-71
2022/01/02 08:27:11;;;;;;;7.65;2.90;;;11.60;99.90;;;;;;5099438;28;20051;-73
2022/01/02 08:29:37;;;;;;;4.85;2.33;;;11.70;99.90;;;;;;5116331;28;20046;-72
2022/01/02 08:32:03;;;;;;;4.35;2.42;;;11.70;99.90;;;;;;5099417;28;20039;-73
2022/01/02 08:34:28;;;;;;;6.80;2.70;;;11.70;99.90;;;;;;5115970;28;20080;-73
2022/01/02 08:36:54;;;;;;;6.90;2.63;;;11.80;99.90;;;;;;5134308;28;20047;-73
2022/01/02 08:39:21;;;;;;;6.47;2.70;;;11.70;99.90;;;;;;5099170;28;20459;-73
2022/01/02 08:41:47;;;;;;;9.07;3.05;;;11.60;99.90;;;;;;5100154;27;20126;-73
2022/01/02 08:44:12;;;;;;;5.80;3.08;;;11.70;99.90;;;;;;5119471;27;20078;-73
2022/01/02 08:46:38;;;;;;;7.35;3.08;;;11.70;99.90;;;;;;5102652;27;20039;-74
2022/01/02 08:49:04;;;;;;;7.57;2.85;;;11.70;99.90;;;;;;5137888;27;20478;-73
2022/01/02 08:51:30;;;;;;;6.20;2.65;;;11.60;99.90;;;;;;5102498;27;20475;-73
2022/01/02 08:53:56;;;;;;;6.72;2.58;;;11.60;99.90;;;;;;5119267;27;20043;-73
2022/01/02 08:56:21;;;;;;;9.50;2.83;;;11.60;99.90;;;;;;5119936;27;20050;-73
2022/01/02 08:58:47;;;;;;;5.53;2.30;;;11.60;99.90;;;;;;5102371;27;20039;-72
2022/01/02 09:01:13;;;;;;;7.85;3.78;;;11.70;99.90;;;;;;5069167;27;20478;-80
2022/01/02 09:03:38;;;;;;;10.48;2.65;;;11.60;99.90;;;;;;5137593;27;20050;-75
2022/01/02 09:06:04;;;;;;;6.82;2.80;;;11.50;99.90;;;;;;5137498;27;20120;-71
2022/01/02 09:08:30;;;;;;;8.38;3.30;;;11.50;99.90;;;;;;5119068;27;20484;-73
2022/01/02 09:10:56;;;;;;;7.20;3.25;;;11.60;99.90;;;;;;5137405;27;20074;-74
2022/01/02 09:13:23;;;;;;;8.07;3.00;;;11.60;99.90;;;;;;5118966;27;20039;-74
2022/01/02 09:15:50;;;;;;;6.30;2.92;;;11.50;99.90;;;;;;5102385;27;20517;-75
2022/01/02 09:18:16;;;;;;;5.20;2.70;;;11.60;99.90;;;;;;5137337;27;20121;-73
2022/01/02 09:20:43;;;;;;;4.40;2.90;;;11.80;99.90;;;;;;5102438;27;20456;-73
2022/01/02 09:23:09;;;;;;;8.75;3.15;;;11.50;99.90;;;;;;5119348;27;20475;-77
2022/01/02 09:25:35;;;;;;;5.85;3.00;;;11.50;99.90;;;;;;5119700;27;20054;-74
2022/01/02 09:28:01;;;;;;;7.55;3.35;;;11.50;99.90;;;;;;5137905;27;20367;-73
2022/01/02 09:30:27;;;;;;;7.22;3.20;;;11.40;99.90;;;;;;5118607;27;20119;-74
2022/01/02 09:32:54;;;;;;;8.20;3.33;;;11.40;99.90;;;;;;5118869;27;20055;-81
2022/01/02 09:35:20;;;;;;;5.95;3.00;;;11.70;99.90;;;;;;5119154;27;20126;-74
2022/01/02 09:37:46;;;;;;;8.50;3.53;;;11.40;99.90;;;;;;5118834;27;20071;-73
2022/01/02 09:40:12;;;;;;;8.55;4.22;;;11.50;99.90;;;;;;5137405;27;20036;-73
2022/01/02 09:42:39;;;;;;;11.27;4.38;;;11.50;99.90;;;;;;5118988;27;20047;-73
2022/01/02 09:45:06;;;;;;;8.95;4.10;;;11.40;99.90;;;;;;5118656;27;20047;-74
2022/01/02 09:47:32;;;;;;;8.98;4.03;;;11.30;99.90;;;;;;5101525;27;20047;-74
2022/01/02 09:50:04;;;;;;;9.95;4.15;;;11.40;99.90;;;;;;5118559;27;20065;-75
2022/01/02 09:52:30;;;;;;;6.68;4.05;;;11.40;99.90;;;;;;5118559;27;20047;-73
2022/01/02 09:54:56;;;;;;;8.68;4.30;;;11.40;99.90;;;;;;5102321;27;20370;-74
2022/01/02 09:57:21;;;;;;;5.55;3.17;;;11.50;99.90;;;;;;5136687;27;20058;-74
2022/01/02 09:59:47;;;;;;;8.07;2.97;;;11.50;99.90;;;;;;5118306;27;20039;-73
2022/01/02 10:02:13;;;;;;;6.50;3.78;;;11.90;99.90;;;;;;5118178;27;20058;-73
2022/01/02 10:04:41;;;;;;;5.47;3.28;;;11.40;99.90;;;;;;5118599;27;20130;-73
2022/01/02 10:07:26;;;;;;;9.43;3.83;;;11.40;99.90;;;;;;5136029;27;20121;-73
2022/01/02 10:09:52;;;;;;;9.27;3.63;;;11.50;99.90;;;;;;5101332;27;20047;-71
2022/01/02 10:12:31;;;;;;;9.95;4.35;;;11.50;99.90;;;;;;5101120;27;20553;-72
2022/01/02 10:15:24;;;;;;;12.18;4.70;;;11.50;99.90;;;;;;5118064;27;20092;-73
2022/01/02 10:18:07;;;;;;;6.70;3.80;;;11.50;99.90;;;;;;5118946;27;20420;-71
2022/01/02 10:20:46;;;;;;;7.18;3.70;;;11.50;99.90;;;;;;5136120;27;20039;-74
2022/01/02 10:23:22;;;;;;;5.95;3.13;;;11.70;99.90;;;;;;5118207;27;20061;-74
2022/01/02 10:25:56;;;;;;;5.95;3.50;;;11.60;99.90;;;;;;5135287;27;20050;-75
2022/01/02 10:28:27;;;;;;;7.07;3.72;;;11.40;99.90;;;;;;5133532;27;20422;-79
2022/01/02 10:31:09;;;;;;;5.57;3.40;;;11.60;99.90;;;;;;5115272;27;20043;-75
2022/01/02 10:33:55;;;;;;;7.13;3.13;;;11.40;99.90;;;;;;5115197;27;20095;-83
2022/01/02 10:36:40;;;;;;;5.28;3.50;;;11.70;99.90;;;;;;5098135;27;20058;-75
2022/01/02 10:39:15;;;;;;;6.35;3.58;;;11.70;99.90;;;;;;5114424;27;20108;-82
2022/01/02 10:41:41;;;;;;;5.20;3.42;;;11.70;99.90;;;;;;5098380;27;20051;-81
2022/01/02 10:44:19;;;;;;;8.20;3.72;;;11.80;99.90;;;;;;5114986;27;20067;-77
2022/01/02 10:47:04;;;;;;;6.40;4.20;;;11.60;99.90;;;;;;5114938;27;20046;-76
2022/01/02 10:49:59;;;;;;;5.50;3.88;;;11.80;99.90;;;;;;5115454;27;20039;-77
2022/01/02 10:52:47;;;;;;;6.68;4.15;;;11.70;99.90;;;;;;5114838;27;20051;-74
2022/01/02 10:55:15;;;;;;;7.43;4.25;;;12.10;99.90;;;;;;5133083;27;20051;-78
2022/01/02 10:57:42;;;;;;;7.40;4.53;;;11.70;99.90;;;;;;5096936;27;20051;-78
2022/01/02 11:00:10;;;;;;;5.78;4.43;;;11.60;99.90;;;;;;5114161;27;20464;-81
2022/01/02 11:02:38;;;;;;;7.43;4.10;;;11.70;99.90;;;;;;5132414;27;20091;-75
2022/01/02 11:05:08;;;;;;;7.38;4.60;;;12.10;99.90;;;;;;5114444;27;20047;-75
2022/01/02 11:07:46;;;;;;;8.40;4.40;;;11.80;99.90;;;;;;5114193;27;20440;-78
2022/01/02 11:10:19;;;;;;;8.43;4.28;;;11.70;99.90;;;;;;5132720;27;20035;-77
2022/01/02 11:12:46;;;;;;;9.00;4.90;;;11.80;99.90;;;;;;5097766;27;20043;-77
2022/01/02 11:15:15;;;;;;;13.02;5.13;;;11.70;99.90;;;;;;5114541;27;20600;-76
2022/01/02 11:17:41;;;;;;;5.47;4.22;;;11.70;99.90;;;;;;5097158;27;20051;-78
2022/01/02 11:20:12;;;;;;;5.68;4.68;;;11.80;99.90;;;;;;5081221;27;20040;-78
2022/01/02 11:23:05;;;;;;;7.50;4.25;;;11.60;99.90;;;;;;5097138;27;20113;-76
2022/01/02 11:26:04;;;;;;;5.47;4.03;;;11.60;99.90;;;;;;5086192;27;20399;-76
2022/01/02 11:28:33;;;;;;;8.05;4.45;;;11.80;99.90;;;;;;5097218;27;20047;-79
2022/01/02 11:30:59;;;;;;;6.30;2.90;;;11.70;99.90;;;;;;5114043;27;20124;-78
2022/01/02 11:33:31;;;;;;;6.32;3.80;;;11.70;99.90;;;;;;5063467;27;20047;-79
2022/01/02 11:35:58;;;;;;;5.18;3.25;;;11.80;99.90;;;;;;5096302;27;20153;-79
2022/01/02 11:38:26;;;;;;;4.95;2.80;;;11.80;99.90;;;;;;5114220;27;20046;-75
2022/01/02 11:40:59;;;;;;;7.05;2.78;;;11.80;99.90;;;;;;5097351;27;20046;-74
2022/01/02 11:43:46;;;;;;;7.18;2.90;;;11.80;99.90;;;;;;5097498;27;20058;-74
2022/01/02 11:46:57;;;;;;;6.28;3.28;;;11.80;99.90;;;;;;5117095;28;20054;-73
2022/01/02 11:49:26;;;;;;;4.75;3.10;;;11.90;99.90;;;;;;5106046;28;20054;-72
2022/01/02 11:51:56;;;;;;;4.53;2.70;;;11.90;99.90;;;;;;5113473;28;20047;-72
2022/01/02 11:54:28;;;;;;;8.60;3.35;;;12.10;99.90;;;;;;5113539;28;20043;-74
2022/01/02 11:57:01;;;;;;;5.15;3.05;;;11.80;99.90;;;;;;5113027;28;20055;-78
2022/01/02 11:59:39;;;;;;;5.35;3.45;;;11.80;99.90;;;;;;5112834;28;20044;-73
2022/01/02 12:02:13;;;;;;;6.50;3.53;;;10.30;99.90;;;;;;5131415;28;20497;-75
2022/01/02 12:10:35;;;;;;;6.88;2.75;;;12.10;99.90;;;;;;5112886;28;20047;-77
2022/01/02 12:13:05;;;;;;;5.40;2.97;;;11.80;99.90;;;;;;5094512;28;20088;-74
2022/01/02 12:15:34;;;;;;;8.10;2.65;;;11.80;99.90;;;;;;5114083;28;20086;-80
2022/01/02 12:18:16;;;;;;;7.05;2.53;;;11.90;99.90;;;;;;5115334;27;20043;-78
2022/01/02 12:20:51;;;;;;;5.63;2.50;;;11.80;99.90;;;;;;5117139;27;20088;-82
2022/01/02 12:23:42;;;;;;;6.00;1.92;;;11.80;99.90;;;;;;5136945;27;20047;-74
2022/01/02 12:26:09;;;;;;;5.90;1.90;;;11.80;99.90;;;;;;5120492;27;20047;-76
2022/01/02 12:29:05;;;;;;;7.40;1.70;;;11.90;99.90;;;;;;5119420;27;20047;-74
2022/01/02 12:31:35;;;;;;;5.90;1.88;;;11.90;99.90;;;;;;5103771;27;20142;-74
2022/01/02 12:34:11;;;;;;;7.20;1.65;;;11.80;99.90;;;;;;5137969;27;20082;-73
2022/01/02 12:36:42;;;;;;;4.32;1.70;;;11.90;99.90;;;;;;5103179;27;20387;-74
2022/01/02 12:39:23;;;;;;;5.03;1.70;;;11.80;99.90;;;;;;5137907;27;20043;-74
2022/01/02 12:41:50;;;;;;;4.53;1.60;;;11.90;99.90;;;;;;5103063;27;20398;-74
2022/01/02 12:44:24;;;;;;;6.57;2.17;;;11.90;99.90;;;;;;5086121;27;20054;-75
2022/01/02 12:46:57;;;;;;;4.97;1.80;;;11.90;99.90;;;;;;5138417;27;20415;-72
2022/01/02 12:49:32;;;;;;;5.88;1.83;;;11.70;99.90;;;;;;5119499;27;20051;-70
2022/01/02 12:52:05;;;;;;;9.32;2.33;;;11.70;99.90;;;;;;5119394;27;20493;-72
2022/01/02 12:54:34;;;;;;;6.70;1.27;;;11.80;99.90;;;;;;5102826;27;20051;-73
2022/01/02 12:57:06;;;;;;;6.88;2.00;;;11.70;99.90;;;;;;5137904;27;20074;-71
2022/01/02 12:59:35;;;;;;;10.60;2.08;;;11.80;99.90;;;;;;5085289;27;20129;-71
2022/01/02 13:02:01;;;;;;;7.00;1.67;;;11.60;99.90;;;;;;5119004;27;20047;-72
2022/01/02 13:04:36;;;;;;;8.10;1.80;;;11.70;99.90;;;;;;5103070;27;20085;-71
2022/01/02 13:07:21;;;;;;;7.63;1.85;;;11.70;99.90;;;;;;5118913;27;20505;-71